Time;durP1;ratioP1;P1;durP2;ratioP2;P2;SDS_P1;SDS_P2;PMS_P1;PMS_P2;Temp;Humidity;BMP_temperature;BMP_pressure;BME280_temperature;BME280_humidity;BME280_pressure;Samples;Min_cycle;Max_cycle;Signal;HPM_P1;HPM_P2
2024/02/25 06:01:08;;;;;;;2.55;1.13;;;3.70;92.10;;;;;;4566137;23;1078256;-78
2024/02/25 06:03:09;;;;;;;4.18;1.45;;;3.80;91.90;;;;;;4101805;29;20094;-76
2024/02/25 06:05:14;;;;;;;2.42;1.00;;;3.90;91.60;;;;;;4101185;29;20106;-77
2024/02/25 06:07:16;;;;;;;4.97;2.17;;;4.00;91.40;;;;;;4083767;29;20420;-80
2024/02/25 06:09:18;;;;;;;4.80;1.95;;;3.90;90.90;;;;;;4097969;28;20051;-78
2024/02/25 06:11:20;;;;;;;5.22;2.70;;;3.90;91.10;;;;;;4097885;28;20054;-79
2024/02/25 06:13:22;;;;;;;3.22;1.30;;;3.80;90.80;;;;;;4099336;29;20055;-79
2024/02/25 06:15:24;;;;;;;5.10;1.80;;;3.90;90.90;;;;;;4093643;29;20468;-79
2024/02/25 06:17:27;;;;;;;4.03;1.58;;;3.70;90.90;;;;;;4095872;29;20106;-76
2024/02/25 06:19:28;;;;;;;3.45;1.33;;;3.70;90.90;;;;;;4100726;29;20047;-78
2024/02/25 06:21:29;;;;;;;3.88;1.70;;;3.80;90.80;;;;;;4100742;29;20055;-78
2024/02/25 06:23:31;;;;;;;2.92;1.30;;;3.80;90.60;;;;;;4100485;29;20047;-76
2024/02/25 06:25:33;;;;;;;3.15;1.10;;;3.70;90.80;;;;;;4100164;29;20047;-77
2024/02/25 06:27:36;;;;;;;3.22;1.30;;;3.90;90.60;;;;;;4091706;29;20398;-79
2024/02/25 06:29:38;;;;;;;4.82;1.20;;;3.90;90.40;;;;;;4092950;28;20059;-77
2024/02/25 06:31:39;;;;;;;2.67;0.95;;;4.00;90.30;;;;;;4092475;29;20098;-79
2024/02/25 06:33:42;;;;;;;2.53;0.88;;;4.10;90.10;;;;;;4099908;29;20501;-79
2024/02/25 06:35:44;;;;;;;2.67;1.13;;;4.10;90.00;;;;;;4100198;29;20050;-78
2024/02/25 06:37:46;;;;;;;2.55;1.15;;;4.20;90.00;;;;;;4099899;29;20099;-77
2024/02/25 06:39:47;;;;;;;3.70;1.42;;;4.30;89.80;;;;;;4100288;29;20043;-78
2024/02/25 06:41:49;;;;;;;3.80;1.10;;;4.30;89.80;;;;;;4100046;29;20094;-79
2024/02/25 06:43:52;;;;;;;2.97;1.02;;;4.30;89.60;;;;;;4099485;28;20076;-77
2024/02/25 06:45:54;;;;;;;5.32;1.80;;;4.40;89.40;;;;;;4097869;28;20424;-77
2024/02/25 06:47:56;;;;;;;4.97;2.10;;;4.40;89.80;;;;;;4096237;29;20047;-76
2024/02/25 06:49:59;;;;;;;3.88;1.70;;;4.30;89.10;;;;;;4087369;28;20560;-77
2024/02/25 06:52:03;;;;;;;4.82;2.22;;;4.20;89.60;;;;;;4096697;29;20448;-79
2024/02/25 06:54:05;;;;;;;3.92;1.80;;;3.80;90.40;;;;;;4100089;29;20059;-79
2024/02/25 06:56:07;;;;;;;4.63;1.77;;;3.90;90.60;;;;;;4093168;29;20051;-78
2024/02/25 06:58:09;;;;;;;4.00;2.03;;;3.90;90.60;;;;;;4093045;29;20043;-78
2024/02/25 07:00:12;;;;;;;4.40;2.30;;;3.90;90.40;;;;;;4093231;29;20452;-77
2024/02/25 07:02:14;;;;;;;7.07;3.03;;;3.90;90.50;;;;;;4088609;29;20056;-80
2024/02/25 07:04:16;;;;;;;7.10;3.30;;;3.80;90.80;;;;;;4093142;28;20051;-79
2024/02/25 07:06:19;;;;;;;4.22;2.30;;;3.90;90.70;;;;;;4091910;28;20086;-78
2024/02/25 07:08:21;;;;;;;6.22;3.03;;;3.90;90.40;;;;;;4100229;29;20043;-79
2024/02/25 07:10:22;;;;;;;4.15;2.22;;;3.90;90.70;;;;;;4099951;29;20051;-80
2024/02/25 07:12:24;;;;;;;5.15;2.63;;;3.90;90.80;;;;;;4099173;29;20059;-78
2024/02/25 07:14:28;;;;;;;5.13;2.90;;;3.90;90.70;;;;;;4100117;29;20118;-79
2024/02/25 07:16:30;;;;;;;5.28;2.65;;;3.90;90.90;;;;;;4100104;29;20461;-79
2024/02/25 07:18:31;;;;;;;8.15;3.47;;;3.90;90.80;;;;;;4100315;29;20055;-79
2024/02/25 07:20:33;;;;;;;6.28;2.80;;;4.00;91.10;;;;;;4099616;29;20051;-80
2024/02/25 07:22:36;;;;;;;5.10;3.38;;;4.00;90.90;;;;;;4099723;29;20052;-80
2024/02/25 07:24:39;;;;;;;8.63;3.75;;;4.00;91.20;;;;;;4099390;29;20062;-79
2024/02/25 07:26:41;;;;;;;7.32;4.30;;;3.90;91.20;;;;;;4099697;29;20051;-80
2024/02/25 07:28:43;;;;;;;8.50;4.65;;;3.90;91.60;;;;;;4100071;29;20050;-80
2024/02/25 07:30:44;;;;;;;7.13;3.83;;;3.80;92.10;;;;;;4095059;28;20047;-80
2024/02/25 07:32:46;;;;;;;8.00;4.10;;;3.70;92.20;;;;;;4093871;29;20079;-80
2024/02/25 07:34:48;;;;;;;6.70;3.45;;;3.70;92.40;;;;;;4099491;29;20098;-77
2024/02/25 07:36:50;;;;;;;8.10;3.85;;;3.70;92.50;;;;;;4099357;29;20127;-79
2024/02/25 07:38:53;;;;;;;7.13;3.50;;;3.70;92.70;;;;;;4099590;29;20102;-78
2024/02/25 07:40:54;;;;;;;6.35;3.63;;;3.80;92.50;;;;;;4099407;29;20105;-75
2024/02/25 07:42:56;;;;;;;7.05;3.55;;;3.70;92.40;;;;;;4099537;29;20062;-77
2024/02/25 07:44:58;;;;;;;6.40;3.35;;;3.80;92.60;;;;;;4098873;29;20055;-76
2024/02/25 07:47:00;;;;;;;6.40;3.25;;;3.90;92.50;;;;;;4089226;28;20039;-78
2024/02/25 07:49:02;;;;;;;5.15;3.03;;;4.10;92.50;;;;;;4094034;29;20473;-74
2024/02/25 07:51:03;;;;;;;6.07;3.00;;;4.20;92.30;;;;;;4099363;29;20055;-77
2024/02/25 07:53:05;;;;;;;5.28;3.28;;;4.20;92.10;;;;;;4099013;29;20051;-78
2024/02/25 07:55:09;;;;;;;6.15;3.10;;;4.30;92.20;;;;;;4099074;29;20051;-79
2024/02/25 07:57:11;;;;;;;6.10;3.08;;;4.40;91.80;;;;;;4098775;29;20130;-79
2024/02/25 07:59:13;;;;;;;7.40;3.30;;;4.50;92.30;;;;;;4099218;29;20478;-80
2024/02/25 08:01:14;;;;;;;7.00;3.47;;;4.60;92.40;;;;;;4097114;28;20472;-79
2024/02/25 08:03:17;;;;;;;7.05;3.63;;;4.60;92.20;;;;;;4087876;29;20047;-76
2024/02/25 08:05:19;;;;;;;6.15;3.15;;;4.70;92.10;;;;;;4099274;29;20066;-76
2024/02/25 08:07:20;;;;;;;6.47;3.63;;;4.70;92.10;;;;;;4098846;29;20059;-77
2024/02/25 08:09:22;;;;;;;6.65;3.85;;;4.60;92.20;;;;;;4099269;29;20051;-77
2024/02/25 08:11:25;;;;;;;7.00;3.47;;;4.70;92.40;;;;;;4099285;29;20126;-79
2024/02/25 08:13:26;;;;;;;5.63;3.20;;;4.80;92.20;;;;;;4098851;29;20047;-79
2024/02/25 08:15:28;;;;;;;5.15;3.03;;;4.80;92.30;;;;;;4099345;29;20122;-79
2024/02/25 08:17:31;;;;;;;6.75;2.95;;;4.90;92.20;;;;;;4098108;28;20062;-80
2024/02/25 08:19:33;;;;;;;6.00;3.00;;;4.90;92.00;;;;;;4098764;29;20051;-78
2024/02/25 08:21:35;;;;;;;6.10;2.90;;;4.70;92.40;;;;;;4098449;29;20051;-80
2024/02/25 08:23:36;;;;;;;6.25;3.28;;;4.70;92.50;;;;;;4098410;29;20055;-79
2024/02/25 08:25:38;;;;;;;5.28;3.22;;;4.80;92.40;;;;;;4098434;29;20055;-80
2024/02/25 08:27:41;;;;;;;5.88;3.38;;;4.90;92.20;;;;;;4098709;29;20055;-78
2024/02/25 08:29:43;;;;;;;5.22;3.13;;;4.90;92.20;;;;;;4099214;29;20051;-79
2024/02/25 08:31:48;;;;;;;5.38;2.90;;;4.90;92.10;;;;;;4098958;29;20047;-79
2024/02/25 08:33:50;;;;;;;5.97;3.25;;;5.00;91.60;;;;;;4098991;29;20058;-78
2024/02/25 08:35:52;;;;;;;5.78;3.00;;;4.90;91.80;;;;;;4098826;29;20396;-80
2024/02/25 08:37:54;;;;;;;6.30;3.10;;;4.90;92.00;;;;;;4098542;29;20059;-79
2024/02/25 08:39:56;;;;;;;6.57;3.15;;;4.90;92.00;;;;;;4098969;29;20460;-78
2024/02/25 08:41:58;;;;;;;6.25;3.30;;;5.00;92.10;;;;;;4098565;29;20477;-78
2024/02/25 08:44:01;;;;;;;5.20;3.20;;;5.10;91.50;;;;;;4098398;29;20051;-79
2024/02/25 08:46:03;;;;;;;5.57;3.17;;;5.10;91.60;;;;;;4098460;29;20735;-78
2024/02/25 08:48:07;;;;;;;5.47;3.22;;;5.20;91.60;;;;;;4096952;29;20097;-79
2024/02/25 08:50:12;;;;;;;4.68;2.88;;;5.20;91.40;;;;;;4098520;29;20043;-80
2024/02/25 08:52:14;;;;;;;5.63;3.00;;;5.30;91.20;;;;;;4099136;29;20058;-77
2024/02/25 08:54:15;;;;;;;4.70;2.65;;;5.30;91.30;;;;;;4098391;29;20193;-78
2024/02/25 08:56:17;;;;;;;5.07;2.75;;;5.30;90.80;;;;;;4098860;29;20051;-80
2024/02/25 08:58:19;;;;;;;5.07;3.10;;;5.40;90.90;;;;;;4099223;29;20106;-79
2024/02/25 09:00:22;;;;;;;5.18;2.90;;;5.40;91.00;;;;;;4098754;29;20070;-79
2024/02/25 09:02:24;;;;;;;4.97;2.65;;;5.50;91.00;;;;;;4098974;29;20147;-81
2024/02/25 09:04:27;;;;;;;5.32;2.60;;;5.60;90.80;;;;;;4098204;29;20066;-80
2024/02/25 09:06:29;;;;;;;7.65;3.70;;;5.70;90.30;;;;;;4096985;29;20055;-81
2024/02/25 09:08:31;;;;;;;5.75;2.90;;;5.70;90.70;;;;;;4098253;29;20051;-78
2024/02/25 09:10:36;;;;;;;4.75;2.60;;;5.80;90.20;;;;;;4098304;29;20050;-81
2024/02/25 09:12:38;;;;;;;6.18;2.83;;;5.80;89.50;;;;;;4098238;29;20578;-79
2024/02/25 09:14:39;;;;;;;8.35;3.50;;;5.80;90.00;;;;;;4098018;29;20059;-79
2024/02/25 09:16:43;;;;;;;5.30;2.90;;;6.00;90.00;;;;;;4098019;29;20051;-78
2024/02/25 09:18:45;;;;;;;5.50;2.92;;;6.00;89.50;;;;;;4098231;29;20115;-79
2024/02/25 09:20:47;;;;;;;5.22;2.83;;;6.00;89.80;;;;;;4097799;29;20118;-80
2024/02/25 09:22:49;;;;;;;4.90;2.40;;;6.10;89.80;;;;;;4098165;29;20074;-79
2024/02/25 09:24:50;;;;;;;4.95;2.40;;;6.20;88.70;;;;;;4098040;29;20110;-79
2024/02/25 09:26:52;;;;;;;4.40;2.40;;;6.30;88.40;;;;;;4098246;29;20103;-80
2024/02/25 09:28:54;;;;;;;4.50;2.25;;;6.30;88.60;;;;;;4098367;28;20114;-79
2024/02/25 09:30:56;;;;;;;7.85;3.22;;;6.40;88.80;;;;;;4101059;29;20112;-79
2024/02/25 09:33:00;;;;;;;5.53;2.63;;;6.40;86.80;;;;;;4102585;28;20047;-79
2024/02/25 09:35:03;;;;;;;4.43;2.40;;;6.50;87.20;;;;;;4100244;28;20447;-79
2024/02/25 09:37:05;;;;;;;4.75;2.35;;;6.50;87.30;;;;;;4099916;29;20386;-80
2024/02/25 09:39:06;;;;;;;4.22;2.17;;;6.60;87.40;;;;;;4101270;29;20055;-78
2024/02/25 09:41:09;;;;;;;4.13;2.10;;;6.60;86.30;;;;;;4101279;29;20110;-78
2024/02/25 09:43:14;;;;;;;4.50;2.38;;;6.70;86.10;;;;;;4101395;29;20085;-80
2024/02/25 09:45:22;;;;;;;3.60;2.08;;;6.70;86.10;;;;;;4101455;29;20142;-79
2024/02/25 09:47:24;;;;;;;4.95;2.45;;;6.70;86.90;;;;;;4099641;29;20134;-77
2024/02/25 09:49:29;;;;;;;4.18;2.10;;;6.70;86.40;;;;;;4100675;29;20393;-77
2024/02/25 09:51:33;;;;;;;4.07;2.10;;;6.80;86.60;;;;;;4101290;29;20062;-78
2024/02/25 09:53:37;;;;;;;6.15;2.40;;;6.80;86.50;;;;;;4101038;29;20134;-79
2024/02/25 09:55:39;;;;;;;5.43;2.50;;;6.90;86.80;;;;;;4101281;29;20051;-79
2024/02/25 09:57:41;;;;;;;5.80;2.67;;;6.80;86.30;;;;;;4101471;29;20047;-78
2024/02/25 09:59:43;;;;;;;4.70;2.08;;;6.80;85.60;;;;;;4100739;29;20481;-78
2024/02/25 10:01:47;;;;;;;4.28;2.22;;;6.90;85.50;;;;;;4100125;29;20059;-78
2024/02/25 10:03:49;;;;;;;4.70;1.88;;;6.90;85.90;;;;;;4100920;29;20055;-80
2024/02/25 10:05:55;;;;;;;5.60;2.22;;;6.90;86.00;;;;;;4100757;29;20047;-80
2024/02/25 10:08:03;;;;;;;4.45;2.05;;;7.00;85.40;;;;;;4100988;29;20063;-77
2024/02/25 10:10:06;;;;;;;5.70;2.05;;;7.00;85.10;;;;;;4100462;29;20077;-76
2024/02/25 10:12:10;;;;;;;4.20;1.80;;;7.10;85.30;;;;;;4100592;29;20051;-80
2024/02/25 10:14:11;;;;;;;5.18;2.40;;;7.20;84.00;;;;;;4101126;29;20047;-79
2024/02/25 10:16:15;;;;;;;5.50;2.13;;;7.20;83.90;;;;;;4098404;28;20047;-79
2024/02/25 10:18:17;;;;;;;5.85;2.35;;;7.30;86.40;;;;;;4097927;28;20043;-77
2024/02/25 10:20:19;;;;;;;3.90;2.10;;;7.30;84.80;;;;;;4100925;29;20102;-77
2024/02/25 10:22:24;;;;;;;4.45;2.50;;;7.30;85.40;;;;;;4101093;29;20106;-78
2024/02/25 10:24:30;;;;;;;6.00;2.60;;;7.50;86.00;;;;;;4101343;29;20062;-78
2024/02/25 10:26:32;;;;;;;5.20;2.65;;;7.50;85.90;;;;;;4100705;29;20157;-78
2024/02/25 10:28:33;;;;;;;4.57;2.67;;;7.60;86.00;;;;;;4099907;29;21777;-79
2024/02/25 10:30:35;;;;;;;5.88;2.70;;;7.60;85.90;;;;;;4100811;29;20078;-79
2024/02/25 10:32:38;;;;;;;5.47;2.70;;;7.60;85.90;;;;;;4099762;29;20043;-80
2024/02/25 10:34:39;;;;;;;5.13;2.55;;;7.70;85.90;;;;;;4097894;28;20063;-79
2024/02/25 10:36:41;;;;;;;4.72;2.40;;;7.70;85.60;;;;;;4084807;29;20059;-78
2024/02/25 10:38:45;;;;;;;5.97;2.60;;;7.70;84.70;;;;;;4100022;29;20656;-77
2024/02/25 10:40:47;;;;;;;4.95;2.53;;;7.60;83.40;;;;;;4100413;28;20079;-78
2024/02/25 10:42:49;;;;;;;6.25;3.08;;;7.60;83.70;;;;;;4100192;29;20090;-77
2024/02/25 10:44:55;;;;;;;5.50;2.50;;;7.70;84.10;;;;;;4101382;29;20146;-76
2024/02/25 10:46:58;;;;;;;5.18;2.42;;;7.70;83.80;;;;;;4095354;28;20110;-75
2024/02/25 10:49:04;;;;;;;4.40;2.13;;;7.80;83.70;;;;;;4100930;29;20134;-80
2024/02/25 10:51:06;;;;;;;;;;;7.80;83.10;;;;;;4099879;29;20456;-79
2024/02/25 10:53:13;;;;;;;4.57;2.38;;;7.90;83.70;;;;;;4100955;29;20416;-78
2024/02/25 10:55:18;;;;;;;4.88;2.40;;;7.90;83.50;;;;;;4088660;29;20055;-79
2024/02/25 10:57:20;;;;;;;5.65;2.50;;;7.90;84.30;;;;;;4084827;29;20098;-78
2024/02/25 10:59:24;;;;;;;5.00;2.40;;;7.90;84.20;;;;;;4094473;29;20542;-77
2024/02/25 11:01:28;;;;;;;4.93;2.28;;;7.90;84.40;;;;;;4100390;29;20059;-76
2024/02/25 11:03:31;;;;;;;5.03;2.15;;;8.00;83.90;;;;;;4100375;29;20051;-76
2024/02/25 11:05:33;;;;;;;4.55;2.13;;;8.00;83.50;;;;;;4101384;29;20050;-78
2024/02/25 11:07:34;;;;;;;5.63;2.20;;;8.10;81.70;;;;;;4102159;29;20055;-79
2024/02/25 11:09:35;;;;;;;4.00;1.90;;;8.30;82.40;;;;;;4096745;28;20157;-77
2024/02/25 11:11:39;;;;;;;3.75;1.90;;;8.40;81.30;;;;;;4096006;29;20055;-79
2024/02/25 11:13:43;;;;;;;4.07;1.90;;;8.60;79.20;;;;;;4097040;28;20055;-80
2024/02/25 11:15:49;;;;;;;4.30;1.50;;;8.70;79.00;;;;;;4074530;29;20052;-77
2024/02/25 11:17:55;;;;;;;3.45;1.45;;;8.80;77.10;;;;;;4095580;29;20126;-78
2024/02/25 11:20:05;;;;;;;2.58;1.08;;;8.70;76.40;;;;;;4084249;29;20130;-80
2024/02/25 11:22:07;;;;;;;3.95;1.45;;;8.80;71.20;;;;;;4112055;29;20051;-77
2024/02/25 11:24:12;;;;;;;4.00;1.38;;;9.00;74.90;;;;;;4113283;29;20041;-78
2024/02/25 11:26:40;;;;;;;4.22;1.40;;;9.10;73.50;;;;;;4113933;29;20082;-79
2024/02/25 11:28:42;;;;;;;1.95;0.93;;;9.20;72.20;;;;;;4112256;29;20074;-79
2024/02/25 11:30:45;;;;;;;2.80;1.20;;;9.40;70.40;;;;;;4113129;29;20086;-80
2024/02/25 11:32:46;;;;;;;2.92;1.35;;;9.40;68.40;;;;;;4112365;29;20198;-81
2024/02/25 11:34:48;;;;;;;3.47;1.20;;;9.50;68.90;;;;;;4112584;29;20504;-79
2024/02/25 11:36:53;;;;;;;2.70;1.13;;;9.50;69.30;;;;;;4110590;29;20146;-78
2024/02/25 11:38:55;;;;;;;3.15;1.30;;;9.70;69.50;;;;;;4110144;29;20043;-80
2024/02/25 11:40:59;;;;;;;3.13;1.10;;;9.70;70.10;;;;;;4108802;29;20480;-79
2024/02/25 11:43:02;;;;;;;2.40;0.95;;;9.80;69.60;;;;;;4092866;29;20068;-79
2024/02/25 11:45:05;;;;;;;3.10;1.05;;;10.00;66.80;;;;;;4099246;29;20043;-82
2024/02/25 11:47:08;;;;;;;3.20;1.10;;;10.00;63.80;;;;;;4102424;29;20098;-79
2024/02/25 11:49:09;;;;;;;2.60;1.10;;;10.00;65.40;;;;;;4107171;29;20050;-80
2024/02/25 11:51:11;;;;;;;3.20;1.02;;;9.90;65.90;;;;;;4105750;29;20047;-79
2024/02/25 11:53:12;;;;;;;2.38;0.90;;;9.90;64.30;;;;;;4100673;28;20039;-79
2024/02/25 11:55:16;;;;;;;2.15;0.98;;;9.90;63.10;;;;;;4102796;29;20051;-80
2024/02/25 11:57:18;;;;;;;3.53;1.00;;;9.90;61.10;;;;;;4100078;28;20540;-79
2024/02/25 11:59:23;;;;;;;2.45;0.90;;;10.10;61.60;;;;;;4101203;29;20083;-80
2024/02/25 12:01:25;;;;;;;1.70;0.70;;;10.20;62.80;;;;;;4098828;29;20058;-79
2024/02/25 12:03:27;;;;;;;3.25;1.00;;;10.20;60.50;;;;;;4099527;29;20055;-78
2024/02/25 12:05:32;;;;;;;2.13;0.75;;;10.30;59.90;;;;;;4099796;29;20051;-78
2024/02/25 12:07:33;;;;;;;3.30;0.93;;;10.20;60.00;;;;;;4099721;29;20464;-78
2024/02/25 12:09:35;;;;;;;2.30;0.90;;;10.20;60.50;;;;;;4099968;29;20118;-78
2024/02/25 12:11:38;;;;;;;3.45;1.00;;;10.40;59.80;;;;;;4100040;29;20051;-78
2024/02/25 12:13:49;;;;;;;2.33;0.80;;;10.40;59.60;;;;;;4261901;27;20956;-77
2024/02/25 12:15:51;;;;;;;2.90;0.80;;;10.60;59.30;;;;;;4245507;28;20083;-78
2024/02/25 12:17:51;;;;;;;1.85;0.70;;;10.60;57.40;;;;;;4244629;28;20081;-78
2024/02/25 12:19:55;;;;;;;3.10;1.00;;;10.70;57.50;;;;;;4245578;28;20063;-82
2024/02/25 12:21:59;;;;;;;1.73;0.70;;;10.90;58.10;;;;;;4245200;28;20549;-80
2024/02/25 12:24:03;;;;;;;2.05;0.70;;;11.00;57.90;;;;;;4247193;27;20059;-78
2024/02/25 12:26:04;;;;;;;2.85;0.80;;;11.10;56.30;;;;;;4250010;27;20472;-79
2024/02/25 12:28:08;;;;;;;2.70;1.00;;;11.20;55.90;;;;;;4245694;28;20458;-81
2024/02/25 12:30:14;;;;;;;1.67;0.70;;;11.30;56.90;;;;;;4246766;28;20051;-76
2024/02/25 12:32:16;;;;;;;;;;;11.30;56.20;;;;;;4246199;28;20051;-79
2024/02/25 12:34:18;;;;;;;3.75;1.90;;;11.60;58.40;;;;;;4245509;28;19980;-80
2024/02/25 12:36:21;;;;;;;3.88;1.70;;;11.80;58.50;;;;;;4244352;28;20108;-81
2024/02/25 12:38:23;;;;;;;1.98;0.80;;;12.10;57.20;;;;;;4245613;27;20064;-79
2024/02/25 12:40:25;;;;;;;2.72;0.90;;;12.50;54.20;;;;;;4243908;28;20438;-77
2024/02/25 12:42:27;;;;;;;1.75;0.65;;;12.70;51.60;;;;;;4244334;28;20051;-79
2024/02/25 12:44:30;;;;;;;2.92;0.63;;;12.90;51.50;;;;;;4244184;27;20052;-79
2024/02/25 12:46:34;;;;;;;1.05;0.63;;;13.20;50.40;;;;;;4242314;28;20039;-77
2024/02/25 12:48:36;;;;;;;1.83;0.70;;;13.30;51.80;;;;;;4244205;28;20131;-78
2024/02/25 12:50:37;;;;;;;2.63;1.13;;;13.20;49.00;;;;;;4244739;28;20104;-80
2024/02/25 12:52:41;;;;;;;3.80;1.45;;;13.00;49.40;;;;;;4245094;28;20055;-80
2024/02/25 12:54:43;;;;;;;2.92;1.23;;;12.90;50.40;;;;;;4244378;27;20718;-79
2024/02/25 12:56:45;;;;;;;2.22;0.95;;;12.90;51.00;;;;;;4243332;28;20062;-79
2024/02/25 12:58:47;;;;;;;1.92;0.70;;;12.80;49.20;;;;;;4244370;28;20088;-77
2024/02/25 13:00:50;;;;;;;2.17;0.75;;;12.80;50.00;;;;;;4244018;27;20043;-78
2024/02/25 13:02:52;;;;;;;2.45;0.80;;;12.90;50.90;;;;;;4245528;27;20093;-78
2024/02/25 13:04:54;;;;;;;3.08;0.85;;;13.00;51.10;;;;;;4245740;28;20047;-81
2024/02/25 13:06:56;;;;;;;1.67;0.60;;;13.00;49.60;;;;;;4245681;28;20051;-78
2024/02/25 13:08:58;;;;;;;1.83;0.70;;;13.20;49.10;;;;;;4244536;27;20047;-78
2024/02/25 13:10:59;;;;;;;1.58;0.60;;;13.40;51.00;;;;;;4245776;28;20471;-79
2024/02/25 13:13:00;;;;;;;2.42;0.70;;;13.70;50.60;;;;;;4248763;27;20688;-78
2024/02/25 13:15:05;;;;;;;2.47;0.82;;;13.90;47.50;;;;;;4263015;27;20047;-79
2024/02/25 13:17:10;;;;;;;2.10;0.70;;;13.80;46.70;;;;;;4262688;27;20047;-79
2024/02/25 13:19:13;;;;;;;2.03;0.70;;;13.90;46.10;;;;;;4249429;27;20077;-78
2024/02/25 13:21:15;;;;;;;2.08;0.70;;;14.00;45.80;;;;;;4245612;28;20100;-79
2024/02/25 13:23:17;;;;;;;2.47;0.80;;;14.30;46.10;;;;;;4245410;28;20047;-79
2024/02/25 13:25:18;;;;;;;1.73;0.75;;;14.40;43.80;;;;;;4233793;28;20051;-80
2024/02/25 13:27:21;;;;;;;2.33;0.70;;;14.80;45.80;;;;;;4234368;28;20085;-78
2024/02/25 13:29:23;;;;;;;2.22;0.80;;;15.00;42.80;;;;;;4234293;28;20048;-79
2024/02/25 13:31:25;;;;;;;2.40;0.90;;;15.50;41.40;;;;;;4234035;28;20047;-76
2024/02/25 13:33:28;;;;;;;2.53;1.00;;;15.90;43.00;;;;;;4233696;28;20044;-78
2024/02/25 13:35:31;;;;;;;1.52;0.70;;;16.40;42.30;;;;;;4215843;28;20048;-80
2024/02/25 13:37:32;;;;;;;1.83;0.65;;;16.80;40.00;;;;;;4234182;28;20048;-80
2024/02/25 13:39:34;;;;;;;2.63;1.13;;;17.40;39.60;;;;;;4233915;28;20117;-79
2024/02/25 13:41:35;;;;;;;1.98;0.65;;;18.20;37.20;;;;;;4233961;28;20534;-78
2024/02/25 13:43:38;;;;;;;2.25;0.90;;;18.50;36.30;;;;;;4233864;28;20484;-79
2024/02/25 13:45:47;;;;;;;2.42;0.80;;;18.90;35.20;;;;;;4233638;28;20055;-78
2024/02/25 13:47:49;;;;;;;1.52;0.50;;;20.00;32.80;;;;;;4233909;28;20051;-79
2024/02/25 13:49:52;;;;;;;1.35;0.43;;;21.70;29.80;;;;;;4234030;28;20040;-78
2024/02/25 13:51:59;;;;;;;3.78;1.55;;;20.50;30.50;;;;;;4244889;27;20047;-79
2024/02/25 13:54:01;;;;;;;1.67;0.70;;;21.10;28.20;;;;;;4250706;27;20047;-78
2024/02/25 13:56:05;;;;;;;3.40;1.73;;;24.10;26.50;;;;;;4250729;27;20115;-78
2024/02/25 13:58:07;;;;;;;2.00;1.08;;;28.70;24.40;;;;;;4233277;27;20434;-80
2024/02/25 14:00:11;;;;;;;2.00;0.80;;;30.60;20.90;;;;;;4233547;28;20047;-79
2024/02/25 14:02:13;;;;;;;2.60;0.80;;;28.80;20.30;;;;;;4233121;28;20055;-79
2024/02/25 14:04:14;;;;;;;1.75;0.70;;;26.10;21.10;;;;;;4234112;27;20051;-80
2024/02/25 14:06:17;;;;;;;2.97;1.90;;;24.30;22.90;;;;;;4231880;28;20389;-82
2024/02/25 14:08:20;;;;;;;2.55;0.60;;;26.40;22.40;;;;;;4219313;28;20557;-80
2024/02/25 14:10:24;;;;;;;1.05;0.50;;;23.50;23.10;;;;;;4247091;27;20083;-81
2024/02/25 14:12:25;;;;;;;1.50;0.60;;;21.70;24.90;;;;;;4230832;28;20074;-79
2024/02/25 14:14:28;;;;;;;1.13;0.47;;;20.90;27.00;;;;;;4239432;27;20137;-80
2024/02/25 14:16:31;;;;;;;1.58;0.70;;;20.60;27.30;;;;;;4242664;27;20043;-81
2024/02/25 14:18:32;;;;;;;1.73;0.65;;;20.30;27.60;;;;;;4231532;28;20159;-81
2024/02/25 14:20:35;;;;;;;2.55;0.75;;;22.60;25.80;;;;;;4231412;28;20055;-79
2024/02/25 14:22:37;;;;;;;1.77;0.60;;;21.60;25.80;;;;;;4228198;28;20477;-81
2024/02/25 14:24:40;;;;;;;1.63;0.88;;;20.10;28.20;;;;;;4231587;28;20108;-79
2024/02/25 14:26:42;;;;;;;1.75;0.70;;;19.40;29.00;;;;;;4231691;28;20461;-81
2024/02/25 14:28:44;;;;;;;1.58;0.73;;;18.60;30.60;;;;;;4248087;27;20088;-78
2024/02/25 14:30:46;;;;;;;1.33;0.60;;;18.20;31.80;;;;;;4241245;27;20105;-79
2024/02/25 14:32:48;;;;;;;8.65;8.15;;;18.00;32.00;;;;;;4230850;28;20061;-79
2024/02/25 14:34:50;;;;;;;6.53;6.13;;;23.00;30.00;;;;;;4212966;28;20074;-79
2024/02/25 14:36:52;;;;;;;10.10;9.50;;;27.80;24.40;;;;;;4229907;28;20047;-79
2024/02/25 14:38:54;;;;;;;2.55;1.90;;;31.10;20.60;;;;;;4230735;28;20056;-79
2024/02/25 14:40:56;;;;;;;9.38;8.88;;;31.80;17.80;;;;;;4230657;28;20078;-76
2024/02/25 14:42:58;;;;;;;1.70;0.70;;;32.40;16.90;;;;;;4230692;28;20047;-80
2024/02/25 14:45:01;;;;;;;1.15;0.60;;;29.10;17.80;;;;;;4230717;28;20088;-80
2024/02/25 14:47:03;;;;;;;1.70;0.70;;;26.60;20.10;;;;;;4230641;28;20051;-79
2024/02/25 14:49:05;;;;;;;1.20;0.50;;;27.90;19.70;;;;;;4230782;28;20126;-79
2024/02/25 14:51:09;;;;;;;1.35;0.55;;;26.20;21.30;;;;;;4230555;28;20454;-79
2024/02/25 14:53:10;;;;;;;2.55;0.70;;;24.50;22.20;;;;;;4235161;27;20529;-78
2024/02/25 14:55:12;;;;;;;3.17;0.60;;;23.30;24.30;;;;;;4247553;27;20085;-79
2024/02/25 14:57:15;;;;;;;1.80;0.70;;;22.50;25.90;;;;;;4247568;27;20078;-79
2024/02/25 14:59:17;;;;;;;2.50;1.42;;;21.80;26.60;;;;;;4234702;27;20043;-78
2024/02/25 15:01:19;;;;;;;2.38;0.70;;;23.00;25.80;;;;;;4238276;27;20112;-79
2024/02/25 15:03:20;;;;;;;2.78;0.75;;;22.00;26.30;;;;;;4231155;28;20051;-85
2024/02/25 15:05:23;;;;;;;1.52;0.60;;;21.30;25.10;;;;;;4232804;28;20109;-83
2024/02/25 15:07:26;;;;;;;1.63;0.70;;;20.50;26.30;;;;;;4232925;28;20055;-84
2024/02/25 15:09:28;;;;;;;1.65;0.60;;;20.00;26.60;;;;;;4233039;27;20048;-82
2024/02/25 15:11:30;;;;;;;1.90;0.70;;;19.50;26.90;;;;;;4232239;28;20047;-82
2024/02/25 15:13:32;;;;;;;1.48;0.80;;;19.40;27.20;;;;;;4233873;28;20044;-81
2024/02/25 15:15:34;;;;;;;2.22;1.30;;;20.10;27.00;;;;;;4217671;28;20558;-83
2024/02/25 15:17:40;;;;;;;1.88;0.60;;;22.30;25.90;;;;;;4231333;28;20044;-81
2024/02/25 15:19:42;;;;;;;1.80;0.70;;;23.50;23.20;;;;;;4246653;27;20054;-80
2024/02/25 15:21:44;;;;;;;2.45;0.77;;;22.00;24.40;;;;;;4230802;27;20055;-80
2024/02/25 15:23:48;;;;;;;2.55;0.60;;;20.70;25.30;;;;;;4231542;28;20122;-82
2024/02/25 15:25:49;;;;;;;1.83;0.75;;;19.90;26.50;;;;;;4214280;28;20071;-79
2024/02/25 15:27:52;;;;;;;3.13;0.82;;;19.40;27.20;;;;;;4213307;28;20068;-82
2024/02/25 15:29:55;;;;;;;1.48;0.70;;;19.00;27.90;;;;;;4229213;28;20381;-79
2024/02/25 15:31:57;;;;;;;2.17;1.50;;;19.30;27.70;;;;;;4230009;28;20043;-80
2024/02/25 15:33:59;;;;;;;2.67;1.05;;;22.20;26.70;;;;;;4229673;28;20533;-78
2024/02/25 15:36:01;;;;;;;2.40;1.33;;;24.70;22.50;;;;;;4229999;28;20052;-78
2024/02/25 15:38:04;;;;;;;2.53;1.50;;;24.70;22.30;;;;;;4230039;28;20044;-78
2024/02/25 15:40:10;;;;;;;2.63;1.40;;;26.80;21.40;;;;;;4229368;28;20150;-79
2024/02/25 15:42:12;;;;;;;;;;;28.70;20.00;;;;;;4230861;28;20428;-80
2024/02/25 15:44:13;;;;;;;2.90;1.40;;;30.00;19.30;;;;;;4242433;27;19926;-82
2024/02/25 15:46:20;;;;;;;2.25;1.20;;;31.10;18.70;;;;;;4230151;28;20059;-83
2024/02/25 15:48:22;;;;;;;2.38;1.45;;;31.50;18.30;;;;;;4237424;27;20039;-79
2024/02/25 15:50:25;;;;;;;2.53;1.35;;;31.90;17.70;;;;;;4246916;27;20051;-78
2024/02/25 15:52:26;;;;;;;3.05;1.50;;;31.70;17.80;;;;;;4246693;27;20051;-81
2024/02/25 15:54:27;;;;;;;2.25;1.40;;;31.80;17.90;;;;;;4243518;27;20048;-81
2024/02/25 15:56:30;;;;;;;1.58;0.70;;;31.90;17.90;;;;;;4230297;28;20044;-81
2024/02/25 15:58:32;;;;;;;2.45;1.10;;;30.30;17.70;;;;;;4229540;27;20454;-79
2024/02/25 16:00:38;;;;;;;1.98;0.90;;;28.90;19.60;;;;;;4213587;28;20044;-80
2024/02/25 16:02:42;;;;;;;1.85;0.95;;;28.90;19.50;;;;;;4213523;28;20055;-81
2024/02/25 16:04:44;;;;;;;1.75;0.88;;;27.80;20.30;;;;;;4217441;28;20048;-78
2024/02/25 16:06:46;;;;;;;1.67;0.80;;;28.20;20.70;;;;;;4229577;28;20054;-78
2024/02/25 16:08:47;;;;;;;1.83;0.90;;;27.80;20.30;;;;;;4229683;28;20503;-79
2024/02/25 16:10:49;;;;;;;1.85;0.80;;;27.60;20.20;;;;;;4229701;28;20096;-82
2024/02/25 16:12:51;;;;;;;2.58;0.60;;;27.20;20.10;;;;;;4229351;28;20120;-81
2024/02/25 16:14:52;;;;;;;1.75;0.60;;;25.70;20.80;;;;;;4229453;28;20108;-79
2024/02/25 16:16:54;;;;;;;1.58;0.60;;;24.10;21.70;;;;;;4229477;28;20493;-79
2024/02/25 16:19:03;;;;;;;1.27;0.60;;;22.70;23.20;;;;;;4233607;28;20091;-79
2024/02/25 16:21:05;;;;;;;1.25;0.60;;;21.40;24.60;;;;;;4247169;28;20096;-80
2024/02/25 16:23:10;;;;;;;1.95;0.75;;;20.50;25.70;;;;;;4244723;28;20047;-79
2024/02/25 16:25:13;;;;;;;1.50;0.50;;;19.90;26.60;;;;;;4246983;28;20450;-81
2024/02/25 16:27:15;;;;;;;2.92;0.80;;;18.90;27.80;;;;;;4243250;28;20122;-79
2024/02/25 16:29:18;;;;;;;1.27;0.57;;;18.40;28.90;;;;;;4231511;28;20043;-80
2024/02/25 16:31:20;;;;;;;1.80;0.70;;;17.90;28.80;;;;;;4230331;28;20374;-80
2024/02/25 16:33:22;;;;;;;1.70;0.60;;;17.50;29.50;;;;;;4229690;28;20079;-78
2024/02/25 16:35:26;;;;;;;2.50;0.80;;;17.20;30.00;;;;;;4229419;28;20052;-78
2024/02/25 16:37:28;;;;;;;2.40;0.98;;;16.90;30.80;;;;;;4229620;28;20082;-78
2024/02/25 16:39:30;;;;;;;2.33;0.90;;;16.70;31.60;;;;;;4233265;28;20467;-78
2024/02/25 16:41:32;;;;;;;2.28;1.00;;;16.40;32.00;;;;;;4246573;28;20533;-77
2024/02/25 16:43:42;;;;;;;2.67;1.00;;;16.10;32.40;;;;;;4246763;28;20066;-78